createdAt,value
2022-11-29T00:02:12.055Z,12.93
2022-11-29T00:07:13.674Z,13.20
2022-11-29T00:12:15.308Z,10.63
2022-11-29T00:17:16.902Z,11.45
2022-11-29T00:22:18.484Z,11.98
2022-11-29T00:27:20.076Z,12.10
2022-11-29T00:32:21.681Z,12.60
2022-11-29T00:37:23.271Z,12.40
2022-11-29T00:42:24.844Z,14.52
2022-11-29T00:47:26.432Z,17.02
2022-11-29T00:52:27.955Z,18.42
2022-11-29T00:57:29.480Z,18.60
2022-11-29T01:02:31.070Z,18.60
2022-11-29T01:07:32.691Z,16.38
2022-11-29T01:12:37.957Z,17.83
2022-11-29T01:17:40.104Z,17.45
2022-11-29T01:22:42.349Z,17.10
2022-11-29T01:27:44.903Z,17.55
2022-11-29T01:32:46.502Z,17.00
2022-11-29T01:37:48.044Z,17.95
2022-11-29T01:42:49.584Z,16.52
2022-11-29T01:47:55.060Z,17.88
2022-11-29T01:52:56.684Z,16.85
2022-11-29T01:58:00.246Z,17.65
2022-11-29T02:03:14.386Z,17.85
2022-11-29T02:08:21.571Z,17.73
2022-11-29T02:13:58.164Z,18.20
2022-11-29T02:19:25.056Z,15.38
2022-11-29T02:24:38.684Z,20.33
2022-11-29T02:29:46.150Z,17.15
2022-11-29T02:35:24.132Z,16.50
2022-11-29T02:40:34.525Z,17.02
2022-11-29T02:46:00.747Z,17.20
2022-11-29T02:51:09.268Z,18.63
2022-11-29T02:56:36.424Z,20.95
2022-11-29T03:01:58.906Z,14.65
2022-11-29T03:07:25.023Z,12.57
2022-11-29T03:12:37.591Z,11.15
2022-11-29T03:17:51.292Z,10.93
2022-11-29T03:23:17.619Z,9.18
2022-11-29T03:28:25.161Z,8.88
2022-11-29T03:33:46.106Z,10.60
2022-11-29T03:38:47.941Z,13.48
2022-11-29T03:44:00.422Z,8.20
2022-11-29T03:49:18.076Z,13.63
2022-11-29T03:54:27.979Z,14.70
2022-11-29T04:05:11.299Z,10.48
2022-11-29T04:10:22.419Z,9.65
2022-11-29T04:16:09.410Z,9.80
2022-11-29T04:21:30.435Z,9.45
2022-11-29T04:27:03.053Z,6.93
2022-11-29T04:32:44.928Z,6.05
2022-11-29T04:38:11.392Z,6.13
2022-11-29T04:43:37.262Z,5.93
2022-11-29T04:49:00.511Z,5.45
2022-11-29T04:54:15.214Z,5.85
2022-11-29T04:59:23.960Z,5.70
2022-11-29T05:04:53.336Z,5.78
2022-11-29T05:10:29.079Z,5.35
2022-11-29T05:15:45.356Z,5.95
2022-11-29T05:21:06.225Z,5.43
2022-11-29T05:26:18.386Z,5.35
2022-11-29T05:31:29.253Z,5.78
2022-11-29T05:37:02.172Z,6.15
2022-11-29T05:42:34.746Z,6.13
2022-11-29T05:47:45.932Z,5.88
2022-11-29T05:52:51.782Z,6.35
2022-11-29T05:58:14.034Z,5.88
2022-11-29T06:03:41.423Z,7.85
2022-11-29T06:08:54.804Z,6.75
2022-11-29T06:14:07.375Z,7.43
2022-11-29T06:19:29.703Z,8.27
2022-11-29T06:24:46.419Z,8.90
2022-11-29T06:30:02.108Z,8.90
2022-11-29T06:35:35.467Z,17.02
2022-11-29T06:40:37.333Z,12.77
2022-11-29T06:45:44.112Z,12.38
2022-11-29T06:51:03.597Z,9.88
2022-11-29T06:56:21.340Z,11.30
2022-11-29T07:01:47.783Z,12.50
2022-11-29T07:06:49.587Z,11.57
2022-11-29T07:11:51.320Z,10.73
2022-11-29T07:17:17.409Z,11.88
2022-11-29T07:22:40.989Z,15.30
2022-11-29T07:27:49.362Z,12.30
2022-11-29T07:33:00.444Z,16.02
2022-11-29T07:38:20.350Z,13.48
2022-11-29T07:43:34.140Z,13.32
2022-11-29T07:48:35.676Z,12.02
2022-11-29T07:53:44.493Z,12.85
2022-11-29T07:58:46.217Z,12.32
2022-11-29T08:03:48.886Z,13.00
2022-11-29T08:08:50.435Z,13.88
2022-11-29T08:13:57.598Z,14.68
2022-11-29T08:18:59.165Z,18.35
2022-11-29T08:24:00.751Z,16.08
2022-11-29T08:29:02.299Z,15.30
2022-11-29T08:34:06.859Z,13.95
2022-11-29T08:39:09.717Z,15.70
2022-11-29T08:44:11.374Z,19.80
2022-11-29T08:49:12.923Z,15.75
2022-11-29T08:54:14.461Z,14.30
2022-11-29T08:59:16.011Z,15.10
2022-11-29T09:04:17.659Z,15.73
2022-11-29T09:09:19.248Z,15.13
2022-11-29T09:14:22.834Z,14.63
2022-11-29T09:19:24.767Z,15.35
2022-11-29T09:24:26.350Z,16.15
2022-11-29T09:29:27.960Z,16.80
2022-11-29T09:34:29.529Z,16.73
2022-11-29T09:39:31.201Z,19.40
2022-11-29T09:44:59.291Z,20.30
2022-11-29T09:50:12.738Z,20.48
2022-11-29T09:55:49.591Z,21.35
2022-11-29T10:00:58.554Z,21.73
2022-11-29T10:06:07.828Z,21.10
2022-11-29T10:11:21.855Z,22.15
2022-11-29T10:16:52.870Z,22.88
2022-11-29T10:22:03.948Z,22.73
2022-11-29T10:27:19.295Z,23.73
2022-11-29T10:32:23.528Z,22.98
2022-11-29T10:37:25.283Z,20.30
2022-11-29T10:42:47.972Z,22.02
2022-11-29T10:47:51.028Z,21.75
2022-11-29T10:53:00.240Z,21.17
2022-11-29T10:58:13.444Z,21.15
2022-11-29T11:03:32.243Z,20.27
2022-11-29T11:08:35.019Z,20.67
2022-11-29T11:13:37.629Z,20.38
2022-11-29T11:18:39.325Z,20.98
2022-11-29T11:24:01.847Z,20.77
2022-11-29T11:29:03.990Z,19.98
2022-11-29T11:34:28.953Z,20.40
2022-11-29T11:39:32.283Z,19.88
2022-11-29T11:44:49.729Z,20.40
2022-11-29T11:50:04.759Z,22.05
2022-11-29T11:55:21.761Z,20.00
2022-11-29T12:01:03.418Z,20.00
2022-11-29T12:06:27.442Z,20.40
2022-11-29T12:11:37.463Z,23.40
2022-11-29T12:16:40.543Z,23.27
2022-11-29T12:21:48.001Z,21.65
2022-11-29T12:26:58.505Z,22.40
2022-11-29T12:32:00.840Z,21.88
2022-11-29T12:37:25.774Z,21.58
2022-11-29T12:43:10.982Z,22.60
2022-11-29T12:48:43.499Z,23.05
2022-11-29T12:53:51.629Z,23.48
2022-11-29T12:59:08.408Z,22.20
2022-11-29T13:04:44.630Z,27.70
2022-11-29T13:10:00.959Z,21.77
2022-11-29T13:15:14.062Z,20.48
2022-11-29T13:20:43.434Z,21.63
2022-11-29T13:25:50.825Z,22.10
2022-11-29T13:30:56.841Z,23.23
2022-11-29T13:36:06.488Z,22.90
2022-11-29T13:41:23.227Z,22.98
2022-11-29T13:46:43.516Z,22.80
2022-11-29T13:51:45.885Z,21.85
2022-11-29T13:56:47.488Z,22.38
2022-11-29T14:01:53.973Z,21.27
2022-11-29T14:07:22.289Z,23.25
2022-11-29T14:12:38.354Z,27.35
2022-11-29T14:17:42.960Z,25.90
2022-11-29T14:23:06.448Z,24.38
2022-11-29T14:28:13.966Z,23.60
2022-11-29T14:33:22.951Z,22.85
2022-11-29T14:38:31.295Z,21.33
2022-11-29T14:43:36.653Z,22.38
2022-11-29T14:48:38.536Z,23.52
2022-11-29T14:53:42.103Z,20.48
2022-11-29T14:58:44.272Z,22.40
2022-11-29T15:03:49.558Z,20.48
2022-11-29T15:08:57.442Z,21.00
2022-11-29T15:14:04.148Z,21.67
2022-11-29T15:19:27.224Z,22.25
2022-11-29T15:24:29.048Z,19.58
2022-11-29T15:29:31.971Z,22.65
2022-11-29T15:34:50.502Z,19.30
2022-11-29T15:40:02.633Z,21.10
2022-11-29T15:45:35.717Z,22.48
2022-11-29T15:50:39.402Z,21.58
2022-11-29T15:55:42.544Z,21.33
2022-11-29T16:00:49.593Z,22.65
2022-11-29T16:06:34.059Z,21.95
2022-11-29T16:11:37.301Z,22.08
2022-11-29T16:16:40.575Z,23.33
2022-11-29T16:21:43.642Z,24.23
2022-11-29T16:26:46.955Z,22.20
2022-11-29T16:31:48.623Z,24.05
2022-11-29T16:37:06.572Z,25.65
2022-11-29T16:42:08.390Z,27.95
2022-11-29T16:47:21.624Z,26.55
2022-11-29T16:52:28.482Z,26.63
2022-11-29T16:57:31.217Z,27.08
2022-11-29T17:02:33.042Z,26.05
2022-11-29T17:07:39.337Z,27.42
2022-11-29T17:12:46.371Z,27.42
2022-11-29T17:17:49.528Z,29.02
2022-11-29T17:22:51.099Z,27.35
2022-11-29T17:27:52.654Z,29.00
2022-11-29T17:32:54.171Z,27.27
2022-11-29T17:37:55.702Z,26.30
2022-11-29T17:42:57.385Z,25.52
2022-11-29T17:47:59.481Z,28.63
2022-11-29T17:53:01.015Z,28.55
2022-11-29T17:58:02.554Z,27.98
2022-11-29T18:03:04.147Z,28.05
2022-11-29T18:08:05.914Z,27.85
2022-11-29T18:13:07.671Z,27.33
2022-11-29T18:18:10.559Z,28.13
2022-11-29T18:23:12.089Z,26.20
2022-11-29T18:28:13.932Z,29.52
2022-11-29T18:33:15.489Z,29.38
2022-11-29T18:38:17.113Z,27.90
2022-11-29T18:43:18.701Z,30.20
2022-11-29T18:48:20.302Z,25.20
2022-11-29T18:53:21.875Z,27.77
2022-11-29T18:58:23.443Z,28.35
2022-11-29T19:03:24.984Z,29.73
2022-11-29T19:08:26.563Z,30.25
2022-11-29T19:13:28.106Z,31.65
2022-11-29T19:18:32.284Z,31.02
2022-11-29T19:23:34.208Z,32.03
2022-11-29T19:28:41.008Z,32.35
2022-11-29T19:33:44.868Z,32.03
2022-11-29T19:38:51.754Z,31.88
2022-11-29T19:44:00.850Z,29.40
2022-11-29T19:49:06.040Z,31.20
2022-11-29T19:54:08.706Z,31.15
2022-11-29T19:59:10.585Z,30.38
2022-11-29T20:04:13.867Z,30.55
2022-11-29T20:09:16.178Z,31.75
2022-11-29T20:14:17.815Z,31.77
2022-11-29T20:19:19.455Z,29.65
2022-11-29T20:24:21.155Z,32.08
2022-11-29T20:29:27.064Z,34.35
2022-11-29T20:34:28.740Z,32.42
2022-11-29T20:40:00.702Z,33.45
2022-11-29T20:45:06.436Z,31.88
2022-11-29T20:50:08.259Z,32.17
2022-11-29T20:55:12.469Z,33.78
2022-11-29T21:00:15.630Z,33.65
2022-11-29T21:05:17.328Z,31.25
2022-11-29T21:10:19.814Z,32.10
2022-11-29T21:15:22.379Z,33.08
2022-11-29T21:20:26.738Z,31.73
2022-11-29T21:25:49.851Z,32.40
2022-11-29T21:30:51.671Z,32.10
2022-11-29T21:35:55.660Z,32.65
2022-11-29T21:40:57.251Z,32.20
2022-11-29T21:45:58.889Z,32.95
2022-11-29T21:51:01.385Z,31.52
2022-11-29T21:56:05.868Z,31.88
2022-11-29T22:01:18.271Z,31.70
2022-11-29T22:06:24.326Z,30.75
2022-11-29T22:11:32.161Z,30.63
2022-11-29T22:16:33.726Z,29.90
2022-11-29T22:21:35.347Z,28.60
2022-11-29T22:26:37.754Z,31.02
2022-11-29T22:31:40.432Z,28.90
2022-11-29T22:36:42.799Z,25.50
2022-11-29T22:41:46.996Z,23.40
2022-11-29T22:46:51.200Z,22.45
2022-11-29T22:51:53.403Z,21.92
2022-11-29T22:56:54.940Z,21.60
2022-11-29T23:01:56.546Z,20.35
2022-11-29T23:06:58.201Z,19.70
2022-11-29T23:11:59.783Z,22.50
2022-11-29T23:17:01.327Z,24.13
2022-11-29T23:22:02.880Z,24.23
2022-11-29T23:27:04.931Z,26.02
2022-11-29T23:32:06.526Z,26.58
2022-11-29T23:37:08.100Z,26.05
2022-11-29T23:42:09.692Z,24.77
2022-11-29T23:47:11.252Z,26.85
2022-11-29T23:52:12.818Z,27.58
2022-11-29T23:57:14.361Z,28.33
